Laoag, Philippines
Current Conditions -  °F | °C
As of 5:00 PM on Sunday 21 Dec 2014 (Local Time) from RPLI Reporting Station
Broken Clouds Broken Clouds  
Wind Chill: 75°   Ceiling: 10000
Heat Index: 75°   Visibility: 6mi
Dew Point: 70°   Wind: 16mph
Humidity: 83%   Direction: 20°NNE
Pressure: 29.85"   Gusts: 25mph
Location:  18.2°N, 120.59°E
Report Text: RPLI 210900Z 02014G22KT 9999 FEW019 BKN100 24/21 Q1011 NOSIGRMK A2986
Loading
Personal Weather Stations






























Interactive Weather Map New forecast layout! Learn more

10-Day Weather Forecast

Advertisements
Track Severe Weather on mobile